This is the latest recevied weather packets stored in our database for station/object EA4BCR. If no packets are shown the sender has not sent any weather packets the latest 10 day(s).
| Time | Temp. | Humidity | Pressure | Rain* | Wind** | Luminosity | Snow |
|---|---|---|---|---|---|---|---|
| 1778052060 | 10.56° C | 75% | 1013.5 hPa | - | - | - | - |
| 1778051454 | 10.56° C | 76% | 1013.5 hPa | - | - | - | - |
| 1778050854 | 10° C | 79% | 1013.9 hPa | - | - | - | - |
| 1778050255 | 9.44° C | 79% | 1014.1 hPa | - | - | - | - |
| 1778049654 | 8.89° C | 83% | 1014.3 hPa | - | - | - | - |
| 1778049055 | 8.33° C | 84% | 1014.5 hPa | - | - | - | - |
| 1778048454 | 7.78° C | 85% | 1014.6 hPa | - | - | - | - |
| 1778047856 | 7.78° C | 85% | 1014.8 hPa | - | - | - | - |
| 1778047254 | 7.22° C | 87% | 1014.9 hPa | - | - | - | - |
| 1778046654 | 6.67° C | 88% | 1015.1 hPa | - | - | - | - |
| 1778046054 | 6.11° C | 90% | 1015.2 hPa | - | - | - | - |
| 1778045454 | 6.11° C | 86% | 1015.2 hPa | - | - | - | - |
| 1778044854 | 6.11° C | 85% | 1015.2 hPa | - | - | - | - |
| 1778044254 | 6.11° C | 85% | 1015 hPa | - | - | - | - |
| 1778043654 | 6.11° C | 87% | 1015.1 hPa | - | - | - | - |
| 1778043054 | 6.11° C | 84% | 1015 hPa | - | - | - | - |
| 1778042454 | 6.67° C | 83% | 1014.8 hPa | - | - | - | - |
| 1778041854 | 6.67° C | 84% | 1014.8 hPa | - | - | - | - |
| 1778041254 | 6.67° C | 86% | 1014.9 hPa | - | - | - | - |
| 1778040655 | 6.67° C | 83% | 1014.6 hPa | - | - | - | - |
| 1778040054 | 6.67° C | 84% | 1014.7 hPa | - | - | - | - |
| 1778039455 | 7.22° C | 83% | 1014.4 hPa | - | - | - | - |
| 1778038854 | 7.22° C | 83% | 1014.5 hPa | - | - | - | - |
| 1778038254 | 7.22° C | 85% | 1014.6 hPa | - | - | - | - |
| 1778037654 | 7.22° C | 83% | 1014.5 hPa | - | - | - | - |
* Rain since midnight (hover to see other rain measurements)
** Current wind speed in m/s (hover to see current wind gust speed)